sensor_id;sensor_type;location;lat;lon;timestamp;P1;durP1;ratioP1;P2;durP2;ratioP2
4365;SDS011;2196;47.422;9.656;2022-10-22T00:01:06;10.00;;;9.00;;
4365;SDS011;2196;47.422;9.656;2022-10-22T00:03:33;11.67;;;10.47;;
4365;SDS011;2196;47.422;9.656;2022-10-22T00:06:00;10.77;;;9.77;;
4365;SDS011;2196;47.422;9.656;2022-10-22T00:08:29;10.43;;;9.27;;
4365;SDS011;2196;47.422;9.656;2022-10-22T00:10:56;16.47;;;12.90;;
4365;SDS011;2196;47.422;9.656;2022-10-22T00:13:23;14.63;;;11.70;;
4365;SDS011;2196;47.422;9.656;2022-10-22T00:15:50;12.60;;;11.30;;
4365;SDS011;2196;47.422;9.656;2022-10-22T00:18:17;13.20;;;10.20;;
4365;SDS011;2196;47.422;9.656;2022-10-22T00:20:44;14.47;;;10.00;;
4365;SDS011;2196;47.422;9.656;2022-10-22T00:23:11;11.93;;;9.30;;
4365;SDS011;2196;47.422;9.656;2022-10-22T00:25:39;10.83;;;9.73;;
4365;SDS011;2196;47.422;9.656;2022-10-22T00:28:06;11.47;;;10.27;;
4365;SDS011;2196;47.422;9.656;2022-10-22T00:30:35;14.77;;;11.80;;
4365;SDS011;2196;47.422;9.656;2022-10-22T00:33:02;12.90;;;10.97;;
4365;SDS011;2196;47.422;9.656;2022-10-22T00:35:29;4.00;;;1.70;;
4365;SDS011;2196;47.422;9.656;2022-10-22T00:37:56;1.40;;;0.30;;
4365;SDS011;2196;47.422;9.656;2022-10-22T00:40:23;0.30;;;0.30;;
4365;SDS011;2196;47.422;9.656;2022-10-22T00:42:52;2.53;;;0.20;;
4365;SDS011;2196;47.422;9.656;2022-10-22T00:47:46;0.33;;;0.10;;
4365;SDS011;2196;47.422;9.656;2022-10-22T00:50:17;0.10;;;0.10;;
4365;SDS011;2196;47.422;9.656;2022-10-22T00:52:48;0.10;;;0.10;;
4365;SDS011;2196;47.422;9.656;2022-10-22T00:55:16;0.00;;;0.00;;
4365;SDS011;2196;47.422;9.656;2022-10-22T00:57:43;0.00;;;0.00;;
4365;SDS011;2196;47.422;9.656;2022-10-22T01:00:13;0.13;;;0.00;;
4365;SDS011;2196;47.422;9.656;2022-10-22T01:02:41;1.10;;;0.00;;
4365;SDS011;2196;47.422;9.656;2022-10-22T01:05:08;0.07;;;0.07;;
4365;SDS011;2196;47.422;9.656;2022-10-22T01:07:38;0.57;;;0.00;;
4365;SDS011;2196;47.422;9.656;2022-10-22T01:10:08;0.00;;;0.00;;
4365;SDS011;2196;47.422;9.656;2022-10-22T01:12:52;0.00;;;0.00;;
4365;SDS011;2196;47.422;9.656;2022-10-22T01:15:30;0.33;;;0.10;;
4365;SDS011;2196;47.422;9.656;2022-10-22T01:18:04;0.00;;;0.00;;
4365;SDS011;2196;47.422;9.656;2022-10-22T01:23:45;0.33;;;0.00;;
4365;SDS011;2196;47.422;9.656;2022-10-22T01:27:01;0.10;;;0.10;;
4365;SDS011;2196;47.422;9.656;2022-10-22T01:29:37;1.70;;;0.10;;
4365;SDS011;2196;47.422;9.656;2022-10-22T01:32:08;0.57;;;0.10;;
4365;SDS011;2196;47.422;9.656;2022-10-22T01:34:40;3.70;;;0.10;;
4365;SDS011;2196;47.422;9.656;2022-10-22T01:37:09;0.20;;;0.10;;
4365;SDS011;2196;47.422;9.656;2022-10-22T01:39:39;0.83;;;0.43;;
4365;SDS011;2196;47.422;9.656;2022-10-22T01:42:10;0.20;;;0.00;;
4365;SDS011;2196;47.422;9.656;2022-10-22T01:44:39;0.00;;;0.00;;
4365;SDS011;2196;47.422;9.656;2022-10-22T01:47:10;0.93;;;0.00;;
4365;SDS011;2196;47.422;9.656;2022-10-22T01:49:56;0.10;;;0.00;;
4365;SDS011;2196;47.422;9.656;2022-10-22T01:52:37;3.50;;;0.10;;
4365;SDS011;2196;47.422;9.656;2022-10-22T01:55:24;0.20;;;0.00;;
4365;SDS011;2196;47.422;9.656;2022-10-22T01:57:57;0.10;;;0.10;;
4365;SDS011;2196;47.422;9.656;2022-10-22T02:00:38;0.20;;;0.20;;
4365;SDS011;2196;47.422;9.656;2022-10-22T02:03:08;0.00;;;0.00;;
4365;SDS011;2196;47.422;9.656;2022-10-22T02:05:42;1.33;;;0.70;;
4365;SDS011;2196;47.422;9.656;2022-10-22T02:08:15;10.33;;;5.40;;
4365;SDS011;2196;47.422;9.656;2022-10-22T02:10:45;1.83;;;1.47;;
4365;SDS011;2196;47.422;9.656;2022-10-22T02:13:15;0.77;;;0.50;;
4365;SDS011;2196;47.422;9.656;2022-10-22T02:15:46;0.33;;;0.07;;
4365;SDS011;2196;47.422;9.656;2022-10-22T02:18:16;1.17;;;0.20;;
4365;SDS011;2196;47.422;9.656;2022-10-22T02:20:45;0.10;;;0.10;;
4365;SDS011;2196;47.422;9.656;2022-10-22T02:23:12;0.00;;;0.00;;
4365;SDS011;2196;47.422;9.656;2022-10-22T02:25:40;0.37;;;0.10;;
4365;SDS011;2196;47.422;9.656;2022-10-22T02:28:12;0.40;;;0.10;;
4365;SDS011;2196;47.422;9.656;2022-10-22T02:30:43;0.23;;;0.17;;
4365;SDS011;2196;47.422;9.656;2022-10-22T02:33:18;0.17;;;0.10;;
4365;SDS011;2196;47.422;9.656;2022-10-22T02:35:49;0.40;;;0.40;;
4365;SDS011;2196;47.422;9.656;2022-10-22T02:38:17;0.57;;;0.17;;
4365;SDS011;2196;47.422;9.656;2022-10-22T02:40:45;2.00;;;0.53;;
4365;SDS011;2196;47.422;9.656;2022-10-22T02:43:12;0.60;;;0.10;;
4365;SDS011;2196;47.422;9.656;2022-10-22T02:45:39;0.00;;;0.00;;
4365;SDS011;2196;47.422;9.656;2022-10-22T02:48:07;0.30;;;0.00;;
4365;SDS011;2196;47.422;9.656;2022-10-22T02:50:35;0.77;;;0.20;;
4365;SDS011;2196;47.422;9.656;2022-10-22T02:53:02;0.10;;;0.10;;
4365;SDS011;2196;47.422;9.656;2022-10-22T02:55:29;0.40;;;0.20;;
4365;SDS011;2196;47.422;9.656;2022-10-22T02:57:55;0.20;;;0.20;;
4365;SDS011;2196;47.422;9.656;2022-10-22T03:00:22;0.30;;;0.17;;
4365;SDS011;2196;47.422;9.656;2022-10-22T03:02:49;0.30;;;0.10;;
4365;SDS011;2196;47.422;9.656;2022-10-22T03:05:18;0.20;;;0.10;;
4365;SDS011;2196;47.422;9.656;2022-10-22T03:07:45;0.83;;;0.20;;
4365;SDS011;2196;47.422;9.656;2022-10-22T03:10:12;0.30;;;0.20;;
4365;SDS011;2196;47.422;9.656;2022-10-22T03:12:39;1.80;;;0.10;;
4365;SDS011;2196;47.422;9.656;2022-10-22T03:15:06;0.93;;;0.10;;
4365;SDS011;2196;47.422;9.656;2022-10-22T03:17:33;0.00;;;0.00;;
4365;SDS011;2196;47.422;9.656;2022-10-22T03:20:00;3.07;;;0.30;;
4365;SDS011;2196;47.422;9.656;2022-10-22T03:22:29;0.20;;;0.20;;
4365;SDS011;2196;47.422;9.656;2022-10-22T03:24:59;0.57;;;0.07;;
4365;SDS011;2196;47.422;9.656;2022-10-22T03:27:28;0.30;;;0.10;;
4365;SDS011;2196;47.422;9.656;2022-10-22T03:29:55;0.30;;;0.30;;
4365;SDS011;2196;47.422;9.656;2022-10-22T03:32:24;0.53;;;0.53;;
4365;SDS011;2196;47.422;9.656;2022-10-22T03:34:50;0.20;;;0.20;;
4365;SDS011;2196;47.422;9.656;2022-10-22T03:37:17;0.30;;;0.30;;
4365;SDS011;2196;47.422;9.656;2022-10-22T03:39:46;0.47;;;0.47;;
4365;SDS011;2196;47.422;9.656;2022-10-22T03:42:14;0.50;;;0.50;;
4365;SDS011;2196;47.422;9.656;2022-10-22T03:44:41;0.60;;;0.60;;
4365;SDS011;2196;47.422;9.656;2022-10-22T03:47:08;0.47;;;0.40;;
4365;SDS011;2196;47.422;9.656;2022-10-22T03:49:35;0.30;;;0.30;;
4365;SDS011;2196;47.422;9.656;2022-10-22T03:52:05;0.40;;;0.40;;
4365;SDS011;2196;47.422;9.656;2022-10-22T03:54:34;0.43;;;0.30;;
4365;SDS011;2196;47.422;9.656;2022-10-22T03:57:03;0.83;;;0.40;;
4365;SDS011;2196;47.422;9.656;2022-10-22T03:59:33;0.30;;;0.30;;
4365;SDS011;2196;47.422;9.656;2022-10-22T04:02:01;0.50;;;0.50;;
4365;SDS011;2196;47.422;9.656;2022-10-22T04:04:28;0.60;;;0.60;;
4365;SDS011;2196;47.422;9.656;2022-10-22T04:06:55;0.93;;;0.43;;
4365;SDS011;2196;47.422;9.656;2022-10-22T04:09:22;0.40;;;0.37;;
4365;SDS011;2196;47.422;9.656;2022-10-22T04:11:49;0.20;;;0.20;;
4365;SDS011;2196;47.422;9.656;2022-10-22T04:14:17;0.20;;;0.20;;
4365;SDS011;2196;47.422;9.656;2022-10-22T04:16:44;1.40;;;0.47;;
4365;SDS011;2196;47.422;9.656;2022-10-22T04:19:12;2.50;;;0.20;;
4365;SDS011;2196;47.422;9.656;2022-10-22T04:21:39;0.20;;;0.20;;
4365;SDS011;2196;47.422;9.656;2022-10-22T04:24:06;0.20;;;0.20;;
4365;SDS011;2196;47.422;9.656;2022-10-22T04:26:33;0.87;;;0.20;;
4365;SDS011;2196;47.422;9.656;2022-10-22T04:29:00;0.10;;;0.10;;
4365;SDS011;2196;47.422;9.656;2022-10-22T04:31:28;2.83;;;0.13;;
4365;SDS011;2196;47.422;9.656;2022-10-22T04:33:56;0.13;;;0.10;;
4365;SDS011;2196;47.422;9.656;2022-10-22T04:36:25;2.23;;;0.40;;
4365;SDS011;2196;47.422;9.656;2022-10-22T04:38:53;0.63;;;0.30;;
4365;SDS011;2196;47.422;9.656;2022-10-22T04:41:22;0.13;;;0.10;;
4365;SDS011;2196;47.422;9.656;2022-10-22T04:43:52;0.20;;;0.20;;
4365;SDS011;2196;47.422;9.656;2022-10-22T04:46:19;0.20;;;0.20;;
4365;SDS011;2196;47.422;9.656;2022-10-22T04:48:49;0.73;;;0.20;;
4365;SDS011;2196;47.422;9.656;2022-10-22T04:51:19;0.43;;;0.20;;
4365;SDS011;2196;47.422;9.656;2022-10-22T04:53:51;0.50;;;0.40;;
4365;SDS011;2196;47.422;9.656;2022-10-22T04:56:18;0.20;;;0.20;;
4365;SDS011;2196;47.422;9.656;2022-10-22T04:58:48;2.73;;;0.40;;
4365;SDS011;2196;47.422;9.656;2022-10-22T05:01:21;0.20;;;0.20;;
4365;SDS011;2196;47.422;9.656;2022-10-22T05:03:51;1.30;;;0.20;;
4365;SDS011;2196;47.422;9.656;2022-10-22T05:06:20;0.20;;;0.20;;
4365;SDS011;2196;47.422;9.656;2022-10-22T05:08:51;0.33;;;0.33;;
4365;SDS011;2196;47.422;9.656;2022-10-22T05:11:20;1.83;;;0.67;;
4365;SDS011;2196;47.422;9.656;2022-10-22T05:13:48;0.20;;;0.20;;
4365;SDS011;2196;47.422;9.656;2022-10-22T05:16:15;0.93;;;0.30;;
4365;SDS011;2196;47.422;9.656;2022-10-22T05:18:45;0.27;;;0.27;;
4365;SDS011;2196;47.422;9.656;2022-10-22T05:21:14;0.47;;;0.27;;
4365;SDS011;2196;47.422;9.656;2022-10-22T05:23:43;0.23;;;0.23;;
4365;SDS011;2196;47.422;9.656;2022-10-22T05:26:11;0.70;;;0.67;;
4365;SDS011;2196;47.422;9.656;2022-10-22T05:28:40;0.33;;;0.27;;
4365;SDS011;2196;47.422;9.656;2022-10-22T05:31:09;0.40;;;0.20;;
4365;SDS011;2196;47.422;9.656;2022-10-22T05:33:37;0.10;;;0.10;;
4365;SDS011;2196;47.422;9.656;2022-10-22T05:36:05;1.13;;;0.30;;
4365;SDS011;2196;47.422;9.656;2022-10-22T05:38:35;0.80;;;0.40;;
4365;SDS011;2196;47.422;9.656;2022-10-22T05:41:02;0.97;;;0.20;;
4365;SDS011;2196;47.422;9.656;2022-10-22T05:43:31;0.10;;;0.10;;
4365;SDS011;2196;47.422;9.656;2022-10-22T05:46:00;0.27;;;0.27;;
4365;SDS011;2196;47.422;9.656;2022-10-22T05:48:30;0.13;;;0.13;;
4365;SDS011;2196;47.422;9.656;2022-10-22T05:50:59;1.40;;;0.30;;
4365;SDS011;2196;47.422;9.656;2022-10-22T05:53:28;2.83;;;0.30;;
4365;SDS011;2196;47.422;9.656;2022-10-22T05:56:00;0.43;;;0.43;;
4365;SDS011;2196;47.422;9.656;2022-10-22T05:58:27;0.40;;;0.33;;
4365;SDS011;2196;47.422;9.656;2022-10-22T06:00:59;0.90;;;0.73;;
4365;SDS011;2196;47.422;9.656;2022-10-22T06:03:27;0.80;;;0.43;;
4365;SDS011;2196;47.422;9.656;2022-10-22T06:05:56;0.40;;;0.40;;
4365;SDS011;2196;47.422;9.656;2022-10-22T06:08:24;0.53;;;0.53;;
4365;SDS011;2196;47.422;9.656;2022-10-22T06:10:51;0.47;;;0.40;;
4365;SDS011;2196;47.422;9.656;2022-10-22T06:13:20;2.33;;;0.43;;
4365;SDS011;2196;47.422;9.656;2022-10-22T06:15:48;3.33;;;0.57;;
4365;SDS011;2196;47.422;9.656;2022-10-22T06:18:16;0.30;;;0.30;;
4365;SDS011;2196;47.422;9.656;2022-10-22T06:20:44;0.93;;;0.40;;
4365;SDS011;2196;47.422;9.656;2022-10-22T06:23:11;2.57;;;0.43;;
4365;SDS011;2196;47.422;9.656;2022-10-22T06:25:39;0.47;;;0.47;;
4365;SDS011;2196;47.422;9.656;2022-10-22T06:28:07;0.20;;;0.20;;
4365;SDS011;2196;47.422;9.656;2022-10-22T06:30:37;0.27;;;0.27;;
4365;SDS011;2196;47.422;9.656;2022-10-22T06:33:04;1.17;;;0.50;;
4365;SDS011;2196;47.422;9.656;2022-10-22T06:35:31;0.63;;;0.30;;
4365;SDS011;2196;47.422;9.656;2022-10-22T06:37:58;0.33;;;0.33;;
4365;SDS011;2196;47.422;9.656;2022-10-22T06:40:25;0.60;;;0.30;;
4365;SDS011;2196;47.422;9.656;2022-10-22T06:42:52;1.30;;;0.10;;
4365;SDS011;2196;47.422;9.656;2022-10-22T06:45:19;0.93;;;0.30;;
4365;SDS011;2196;47.422;9.656;2022-10-22T06:47:47;0.50;;;0.33;;
4365;SDS011;2196;47.422;9.656;2022-10-22T06:50:15;0.30;;;0.30;;
4365;SDS011;2196;47.422;9.656;2022-10-22T06:52:42;0.70;;;0.27;;
4365;SDS011;2196;47.422;9.656;2022-10-22T06:55:09;0.30;;;0.20;;
4365;SDS011;2196;47.422;9.656;2022-10-22T06:57:36;0.20;;;0.20;;
4365;SDS011;2196;47.422;9.656;2022-10-22T07:00:04;1.40;;;0.13;;
4365;SDS011;2196;47.422;9.656;2022-10-22T07:02:32;1.13;;;0.30;;
4365;SDS011;2196;47.422;9.656;2022-10-22T07:05:01;0.20;;;0.20;;
4365;SDS011;2196;47.422;9.656;2022-10-22T07:07:29;0.23;;;0.23;;
4365;SDS011;2196;47.422;9.656;2022-10-22T07:09:56;1.40;;;0.20;;
4365;SDS011;2196;47.422;9.656;2022-10-22T07:12:23;0.97;;;0.30;;
4365;SDS011;2196;47.422;9.656;2022-10-22T07:14:51;0.27;;;0.27;;
4365;SDS011;2196;47.422;9.656;2022-10-22T07:17:18;0.97;;;0.37;;
4365;SDS011;2196;47.422;9.656;2022-10-22T07:19:45;0.73;;;0.67;;
4365;SDS011;2196;47.422;9.656;2022-10-22T07:22:13;0.40;;;0.33;;
4365;SDS011;2196;47.422;9.656;2022-10-22T07:24:40;0.43;;;0.43;;
4365;SDS011;2196;47.422;9.656;2022-10-22T07:27:07;0.80;;;0.60;;
4365;SDS011;2196;47.422;9.656;2022-10-22T07:29:34;0.43;;;0.30;;
4365;SDS011;2196;47.422;9.656;2022-10-22T07:32:01;0.93;;;0.30;;
4365;SDS011;2196;47.422;9.656;2022-10-22T07:34:28;0.60;;;0.30;;
4365;SDS011;2196;47.422;9.656;2022-10-22T07:36:55;0.73;;;0.60;;
4365;SDS011;2196;47.422;9.656;2022-10-22T07:39:23;1.60;;;0.43;;
4365;SDS011;2196;47.422;9.656;2022-10-22T07:41:50;0.10;;;0.10;;
4365;SDS011;2196;47.422;9.656;2022-10-22T07:44:17;1.37;;;0.10;;
4365;SDS011;2196;47.422;9.656;2022-10-22T07:46:45;0.40;;;0.40;;
4365;SDS011;2196;47.422;9.656;2022-10-22T07:49:11;0.60;;;0.20;;
4365;SDS011;2196;47.422;9.656;2022-10-22T07:51:38;0.10;;;0.10;;
4365;SDS011;2196;47.422;9.656;2022-10-22T07:54:05;2.33;;;0.20;;
4365;SDS011;2196;47.422;9.656;2022-10-22T07:56:34;0.33;;;0.20;;
4365;SDS011;2196;47.422;9.656;2022-10-22T07:59:01;0.30;;;0.30;;
4365;SDS011;2196;47.422;9.656;2022-10-22T08:01:28;1.47;;;0.20;;
4365;SDS011;2196;47.422;9.656;2022-10-22T08:03:55;1.70;;;0.47;;
4365;SDS011;2196;47.422;9.656;2022-10-22T08:06:22;0.20;;;0.20;;
4365;SDS011;2196;47.422;9.656;2022-10-22T08:08:49;0.20;;;0.13;;
4365;SDS011;2196;47.422;9.656;2022-10-22T08:11:16;0.97;;;0.23;;
4365;SDS011;2196;47.422;9.656;2022-10-22T08:13:48;2.80;;;0.50;;
4365;SDS011;2196;47.422;9.656;2022-10-22T08:16:15;0.40;;;0.20;;
4365;SDS011;2196;47.422;9.656;2022-10-22T08:18:42;0.40;;;0.40;;
4365;SDS011;2196;47.422;9.656;2022-10-22T08:21:09;0.37;;;0.37;;
4365;SDS011;2196;47.422;9.656;2022-10-22T08:23:37;1.17;;;0.20;;
4365;SDS011;2196;47.422;9.656;2022-10-22T08:26:04;0.13;;;0.13;;
4365;SDS011;2196;47.422;9.656;2022-10-22T08:28:32;0.30;;;0.20;;
4365;SDS011;2196;47.422;9.656;2022-10-22T08:31:02;0.23;;;0.23;;
4365;SDS011;2196;47.422;9.656;2022-10-22T08:33:29;0.10;;;0.10;;
4365;SDS011;2196;47.422;9.656;2022-10-22T08:35:56;1.37;;;0.30;;
4365;SDS011;2196;47.422;9.656;2022-10-22T08:38:23;2.37;;;0.20;;
4365;SDS011;2196;47.422;9.656;2022-10-22T08:40:52;0.20;;;0.20;;
4365;SDS011;2196;47.422;9.656;2022-10-22T08:43:26;0.40;;;0.40;;
4365;SDS011;2196;47.422;9.656;2022-10-22T08:46:38;0.30;;;0.30;;
4365;SDS011;2196;47.422;9.656;2022-10-22T08:49:18;0.10;;;0.10;;
4365;SDS011;2196;47.422;9.656;2022-10-22T08:51:47;0.10;;;0.10;;
4365;SDS011;2196;47.422;9.656;2022-10-22T08:54:17;0.20;;;0.17;;
4365;SDS011;2196;47.422;9.656;2022-10-22T08:56:53;1.00;;;0.20;;
4365;SDS011;2196;47.422;9.656;2022-10-22T08:59:31;0.83;;;0.20;;
4365;SDS011;2196;47.422;9.656;2022-10-22T09:02:07;0.40;;;0.30;;
4365;SDS011;2196;47.422;9.656;2022-10-22T09:04:49;0.77;;;0.20;;
4365;SDS011;2196;47.422;9.656;2022-10-22T09:07:23;0.50;;;0.30;;
4365;SDS011;2196;47.422;9.656;2022-10-22T09:09:50;0.20;;;0.20;;
4365;SDS011;2196;47.422;9.656;2022-10-22T09:12:19;0.80;;;0.30;;
4365;SDS011;2196;47.422;9.656;2022-10-22T09:14:49;2.97;;;0.30;;
4365;SDS011;2196;47.422;9.656;2022-10-22T09:17:19;0.57;;;0.23;;
4365;SDS011;2196;47.422;9.656;2022-10-22T09:19:53;0.20;;;0.20;;
4365;SDS011;2196;47.422;9.656;2022-10-22T09:22:30;0.30;;;0.30;;
4365;SDS011;2196;47.422;9.656;2022-10-22T09:25:08;1.00;;;0.73;;
4365;SDS011;2196;47.422;9.656;2022-10-22T09:27:41;0.20;;;0.20;;
4365;SDS011;2196;47.422;9.656;2022-10-22T09:30:10;0.20;;;0.20;;
4365;SDS011;2196;47.422;9.656;2022-10-22T09:32:42;0.27;;;0.27;;
4365;SDS011;2196;47.422;9.656;2022-10-22T09:35:09;1.20;;;0.20;;
4365;SDS011;2196;47.422;9.656;2022-10-22T09:37:43;0.63;;;0.20;;
4365;SDS011;2196;47.422;9.656;2022-10-22T09:40:13;0.83;;;0.47;;
4365;SDS011;2196;47.422;9.656;2022-10-22T09:42:41;0.77;;;0.20;;
4365;SDS011;2196;47.422;9.656;2022-10-22T09:45:14;0.97;;;0.80;;
4365;SDS011;2196;47.422;9.656;2022-10-22T09:47:45;0.33;;;0.33;;
4365;SDS011;2196;47.422;9.656;2022-10-22T09:50:18;2.60;;;0.30;;
4365;SDS011;2196;47.422;9.656;2022-10-22T09:52:56;0.20;;;0.20;;
4365;SDS011;2196;47.422;9.656;2022-10-22T09:55:25;1.20;;;0.40;;
4365;SDS011;2196;47.422;9.656;2022-10-22T09:57:53;0.20;;;0.20;;
4365;SDS011;2196;47.422;9.656;2022-10-22T10:00:21;0.87;;;0.30;;
4365;SDS011;2196;47.422;9.656;2022-10-22T10:02:54;0.70;;;0.70;;
4365;SDS011;2196;47.422;9.656;2022-10-22T10:05:26;0.40;;;0.20;;
4365;SDS011;2196;47.422;9.656;2022-10-22T10:07:54;0.30;;;0.20;;
4365;SDS011;2196;47.422;9.656;2022-10-22T10:10:26;0.20;;;0.20;;
4365;SDS011;2196;47.422;9.656;2022-10-22T10:13:00;0.20;;;0.20;;
4365;SDS011;2196;47.422;9.656;2022-10-22T10:15:37;0.67;;;0.20;;
4365;SDS011;2196;47.422;9.656;2022-10-22T10:18:13;1.77;;;0.30;;
4365;SDS011;2196;47.422;9.656;2022-10-22T10:20:49;0.30;;;0.30;;
4365;SDS011;2196;47.422;9.656;2022-10-22T10:23:22;0.20;;;0.20;;
4365;SDS011;2196;47.422;9.656;2022-10-22T10:25:54;0.40;;;0.40;;
4365;SDS011;2196;47.422;9.656;2022-10-22T10:28:42;2.00;;;0.40;;
4365;SDS011;2196;47.422;9.656;2022-10-22T10:31:25;0.43;;;0.43;;
4365;SDS011;2196;47.422;9.656;2022-10-22T10:34:03;1.33;;;0.30;;
4365;SDS011;2196;47.422;9.656;2022-10-22T10:36:42;2.43;;;0.30;;
4365;SDS011;2196;47.422;9.656;2022-10-22T10:39:16;0.33;;;0.30;;
4365;SDS011;2196;47.422;9.656;2022-10-22T10:41:50;1.47;;;1.00;;
4365;SDS011;2196;47.422;9.656;2022-10-22T10:44:40;0.30;;;0.30;;
4365;SDS011;2196;47.422;9.656;2022-10-22T10:47:28;0.37;;;0.37;;
4365;SDS011;2196;47.422;9.656;2022-10-22T10:50:19;0.20;;;0.20;;
4365;SDS011;2196;47.422;9.656;2022-10-22T10:52:54;0.57;;;0.30;;
4365;SDS011;2196;47.422;9.656;2022-10-22T10:55:28;2.93;;;0.40;;
4365;SDS011;2196;47.422;9.656;2022-10-22T10:58:01;1.07;;;0.20;;
4365;SDS011;2196;47.422;9.656;2022-10-22T11:00:38;0.20;;;0.20;;
4365;SDS011;2196;47.422;9.656;2022-10-22T11:06:15;0.27;;;0.27;;
4365;SDS011;2196;47.422;9.656;2022-10-22T11:08:45;0.47;;;0.30;;
4365;SDS011;2196;47.422;9.656;2022-10-22T11:11:20;0.20;;;0.20;;
4365;SDS011;2196;47.422;9.656;2022-10-22T11:13:52;1.37;;;0.20;;
4365;SDS011;2196;47.422;9.656;2022-10-22T11:16:25;0.20;;;0.20;;
4365;SDS011;2196;47.422;9.656;2022-10-22T11:18:59;1.40;;;0.33;;
4365;SDS011;2196;47.422;9.656;2022-10-22T11:21:33;0.20;;;0.10;;
4365;SDS011;2196;47.422;9.656;2022-10-22T11:24:08;1.80;;;0.17;;
4365;SDS011;2196;47.422;9.656;2022-10-22T11:26:40;1.17;;;0.30;;
4365;SDS011;2196;47.422;9.656;2022-10-22T11:29:12;1.70;;;0.20;;
4365;SDS011;2196;47.422;9.656;2022-10-22T11:31:42;1.40;;;0.20;;
4365;SDS011;2196;47.422;9.656;2022-10-22T11:34:13;0.40;;;0.40;;
4365;SDS011;2196;47.422;9.656;2022-10-22T11:36:46;0.10;;;0.10;;
4365;SDS011;2196;47.422;9.656;2022-10-22T11:39:31;0.10;;;0.10;;
4365;SDS011;2196;47.422;9.656;2022-10-22T11:42:03;0.00;;;0.00;;
4365;SDS011;2196;47.422;9.656;2022-10-22T11:44:44;3.30;;;0.20;;
4365;SDS011;2196;47.422;9.656;2022-10-22T11:47:23;0.20;;;0.17;;
4365;SDS011;2196;47.422;9.656;2022-10-22T11:49:56;1.27;;;0.10;;
4365;SDS011;2196;47.422;9.656;2022-10-22T11:52:39;0.10;;;0.00;;
4365;SDS011;2196;47.422;9.656;2022-10-22T11:57:57;0.10;;;0.10;;
4365;SDS011;2196;47.422;9.656;2022-10-22T12:00:33;0.40;;;0.10;;
4365;SDS011;2196;47.422;9.656;2022-10-22T12:03:14;0.00;;;0.00;;
4365;SDS011;2196;47.422;9.656;2022-10-22T12:05:42;0.10;;;0.10;;
4365;SDS011;2196;47.422;9.656;2022-10-22T12:08:21;0.17;;;0.17;;
4365;SDS011;2196;47.422;9.656;2022-10-22T12:10:55;0.00;;;0.00;;
4365;SDS011;2196;47.422;9.656;2022-10-22T12:13:27;0.10;;;0.10;;
4365;SDS011;2196;47.422;9.656;2022-10-22T12:15:57;0.77;;;0.10;;
4365;SDS011;2196;47.422;9.656;2022-10-22T12:18:29;0.10;;;0.10;;
4365;SDS011;2196;47.422;9.656;2022-10-22T12:21:00;1.03;;;0.17;;
4365;SDS011;2196;47.422;9.656;2022-10-22T12:23:30;0.23;;;0.10;;
4365;SDS011;2196;47.422;9.656;2022-10-22T12:25:59;1.03;;;0.10;;
4365;SDS011;2196;47.422;9.656;2022-10-22T12:28:28;0.40;;;0.17;;
4365;SDS011;2196;47.422;9.656;2022-10-22T12:31:02;0.20;;;0.20;;
4365;SDS011;2196;47.422;9.656;2022-10-22T12:33:29;0.00;;;0.00;;
4365;SDS011;2196;47.422;9.656;2022-10-22T12:35:56;2.43;;;0.00;;
4365;SDS011;2196;47.422;9.656;2022-10-22T12:38:29;3.30;;;0.20;;
4365;SDS011;2196;47.422;9.656;2022-10-22T12:40:56;0.00;;;0.00;;
4365;SDS011;2196;47.422;9.656;2022-10-22T12:43:24;0.67;;;0.00;;
4365;SDS011;2196;47.422;9.656;2022-10-22T12:45:53;0.20;;;0.10;;
4365;SDS011;2196;47.422;9.656;2022-10-22T12:48:23;0.10;;;0.10;;
4365;SDS011;2196;47.422;9.656;2022-10-22T12:50:52;0.10;;;0.10;;
4365;SDS011;2196;47.422;9.656;2022-10-22T12:53:21;0.10;;;0.10;;
4365;SDS011;2196;47.422;9.656;2022-10-22T12:55:52;0.30;;;0.10;;
4365;SDS011;2196;47.422;9.656;2022-10-22T12:58:21;0.50;;;0.10;;
4365;SDS011;2196;47.422;9.656;2022-10-22T13:00:53;0.20;;;0.20;;
4365;SDS011;2196;47.422;9.656;2022-10-22T13:03:27;0.20;;;0.20;;
4365;SDS011;2196;47.422;9.656;2022-10-22T13:05:56;0.20;;;0.20;;
4365;SDS011;2196;47.422;9.656;2022-10-22T13:08:36;0.47;;;0.30;;
4365;SDS011;2196;47.422;9.656;2022-10-22T13:11:07;0.07;;;0.07;;
4365;SDS011;2196;47.422;9.656;2022-10-22T13:13:42;1.00;;;0.10;;
4365;SDS011;2196;47.422;9.656;2022-10-22T13:16:17;0.67;;;0.17;;
4365;SDS011;2196;47.422;9.656;2022-10-22T13:18:47;1.03;;;0.10;;
4365;SDS011;2196;47.422;9.656;2022-10-22T13:21:22;0.10;;;0.10;;
4365;SDS011;2196;47.422;9.656;2022-10-22T13:23:52;0.10;;;0.10;;
4365;SDS011;2196;47.422;9.656;2022-10-22T13:26:22;0.13;;;0.13;;
4365;SDS011;2196;47.422;9.656;2022-10-22T13:28:55;0.10;;;0.10;;
4365;SDS011;2196;47.422;9.656;2022-10-22T13:31:25;0.10;;;0.10;;
4365;SDS011;2196;47.422;9.656;2022-10-22T13:33:57;0.20;;;0.10;;
4365;SDS011;2196;47.422;9.656;2022-10-22T13:36:26;1.37;;;0.20;;
4365;SDS011;2196;47.422;9.656;2022-10-22T13:38:54;0.10;;;0.10;;
4365;SDS011;2196;47.422;9.656;2022-10-22T13:41:23;1.23;;;0.10;;
4365;SDS011;2196;47.422;9.656;2022-10-22T13:43:51;0.47;;;0.10;;
4365;SDS011;2196;47.422;9.656;2022-10-22T13:46:20;0.50;;;0.10;;
4365;SDS011;2196;47.422;9.656;2022-10-22T13:48:48;0.03;;;0.03;;
4365;SDS011;2196;47.422;9.656;2022-10-22T13:51:21;0.10;;;0.10;;
4365;SDS011;2196;47.422;9.656;2022-10-22T13:53:49;0.10;;;0.10;;
4365;SDS011;2196;47.422;9.656;2022-10-22T13:56:18;0.30;;;0.10;;
4365;SDS011;2196;47.422;9.656;2022-10-22T13:58:48;0.43;;;0.10;;
4365;SDS011;2196;47.422;9.656;2022-10-22T14:01:19;0.10;;;0.10;;
4365;SDS011;2196;47.422;9.656;2022-10-22T14:03:48;0.10;;;0.10;;
4365;SDS011;2196;47.422;9.656;2022-10-22T14:06:17;0.00;;;0.00;;
4365;SDS011;2196;47.422;9.656;2022-10-22T14:08:46;0.47;;;0.20;;
4365;SDS011;2196;47.422;9.656;2022-10-22T14:11:18;0.10;;;0.10;;
4365;SDS011;2196;47.422;9.656;2022-10-22T14:13:47;0.83;;;0.10;;
4365;SDS011;2196;47.422;9.656;2022-10-22T14:16:15;0.00;;;0.00;;
4365;SDS011;2196;47.422;9.656;2022-10-22T14:18:47;0.00;;;0.00;;
4365;SDS011;2196;47.422;9.656;2022-10-22T14:21:14;0.47;;;0.00;;
4365;SDS011;2196;47.422;9.656;2022-10-22T14:23:43;0.50;;;0.10;;
4365;SDS011;2196;47.422;9.656;2022-10-22T14:26:19;0.00;;;0.00;;
4365;SDS011;2196;47.422;9.656;2022-10-22T14:28:52;0.00;;;0.00;;
4365;SDS011;2196;47.422;9.656;2022-10-22T14:31:19;0.10;;;0.10;;
4365;SDS011;2196;47.422;9.656;2022-10-22T14:33:49;0.10;;;0.10;;
4365;SDS011;2196;47.422;9.656;2022-10-22T14:36:16;0.10;;;0.10;;
4365;SDS011;2196;47.422;9.656;2022-10-22T14:38:44;0.20;;;0.20;;
4365;SDS011;2196;47.422;9.656;2022-10-22T14:41:17;0.20;;;0.20;;
4365;SDS011;2196;47.422;9.656;2022-10-22T14:43:45;0.20;;;0.20;;
4365;SDS011;2196;47.422;9.656;2022-10-22T14:46:16;0.27;;;0.13;;
4365;SDS011;2196;47.422;9.656;2022-10-22T14:48:46;0.30;;;0.10;;
4365;SDS011;2196;47.422;9.656;2022-10-22T14:51:14;1.50;;;0.10;;
4365;SDS011;2196;47.422;9.656;2022-10-22T14:53:43;0.20;;;0.20;;
4365;SDS011;2196;47.422;9.656;2022-10-22T14:56:14;0.00;;;0.00;;
4365;SDS011;2196;47.422;9.656;2022-10-22T14:58:42;0.30;;;0.20;;
4365;SDS011;2196;47.422;9.656;2022-10-22T15:01:09;0.10;;;0.10;;
4365;SDS011;2196;47.422;9.656;2022-10-22T15:03:38;0.77;;;0.10;;
4365;SDS011;2196;47.422;9.656;2022-10-22T15:06:05;0.83;;;0.20;;
4365;SDS011;2196;47.422;9.656;2022-10-22T15:08:32;0.20;;;0.20;;
4365;SDS011;2196;47.422;9.656;2022-10-22T15:11:00;0.40;;;0.20;;
4365;SDS011;2196;47.422;9.656;2022-10-22T15:13:29;0.60;;;0.20;;
4365;SDS011;2196;47.422;9.656;2022-10-22T15:15:57;0.20;;;0.20;;
4365;SDS011;2196;47.422;9.656;2022-10-22T15:18:25;0.30;;;0.30;;
4365;SDS011;2196;47.422;9.656;2022-10-22T15:20:55;0.40;;;0.40;;
4365;SDS011;2196;47.422;9.656;2022-10-22T15:23:22;0.20;;;0.20;;
4365;SDS011;2196;47.422;9.656;2022-10-22T15:25:50;0.20;;;0.20;;
4365;SDS011;2196;47.422;9.656;2022-10-22T15:28:17;1.10;;;0.10;;
4365;SDS011;2196;47.422;9.656;2022-10-22T15:30:44;0.10;;;0.10;;
4365;SDS011;2196;47.422;9.656;2022-10-22T15:33:16;0.20;;;0.20;;
4365;SDS011;2196;47.422;9.656;2022-10-22T15:35:43;0.20;;;0.20;;
4365;SDS011;2196;47.422;9.656;2022-10-22T15:38:12;0.50;;;0.30;;
4365;SDS011;2196;47.422;9.656;2022-10-22T15:40:39;1.27;;;0.43;;
4365;SDS011;2196;47.422;9.656;2022-10-22T15:43:06;1.13;;;0.30;;
4365;SDS011;2196;47.422;9.656;2022-10-22T15:45:33;0.40;;;0.40;;